C6041 PADQ-PADQ

Flight info

Callsign C6041
Flight time N/A
Altitude 1000
Route KKB KPR
Aircraft H60/L-VGD/C

Departure

Time 2026-05-06 01:41
Airport Kodiak Airport (PADQ)

Arrival

Time N/A
Airport Kodiak Airport (PADQ)
Time Latitude Longitude Altitude Speed Heading
2026-05-06 01:34 57.73775 -152.50913 24 ft 0 kts 42°
2026-05-06 01:40 57.73776 -152.50911 24 ft 1 kts 44°
2026-05-06 01:40 57.73832 -152.50760 123 ft 33 kts 40°
2026-05-06 01:41 57.74113 -152.50403 405 ft 66 kts 26°
2026-05-06 01:41 57.74649 -152.50003 658 ft 99 kts 12°
2026-05-06 01:41 57.75428 -152.49770 735 ft 130 kts 17°
2026-05-06 01:41 57.76170 -152.48671 674 ft 143 kts 49°
2026-05-06 01:42 57.76707 -152.47040 678 ft 149 kts 60°
2026-05-06 01:42 57.77220 -152.45270 599 ft 155 kts 61°
2026-05-06 01:42 57.77678 -152.43484 683 ft 150 kts 65°
2026-05-06 01:42 57.78058 -152.41704 809 ft 145 kts 66°
2026-05-06 01:43 57.78458 -152.40006 823 ft 143 kts 60°
2026-05-06 01:43 57.78947 -152.38341 752 ft 147 kts 52°
2026-05-06 01:43 57.79620 -152.36961 841 ft 138 kts 35°
2026-05-06 01:43 57.80492 -152.36485 958 ft 134 kts 353°
2026-05-06 01:44 57.81396 -152.36968 967 ft 137 kts 338°
2026-05-06 01:44 57.82307 -152.37553 961 ft 140 kts 339°
2026-05-06 01:44 57.83282 -152.37733 959 ft 140 kts 355°
2026-05-06 01:44 57.84264 -152.37766 979 ft 142 kts 357°
2026-05-06 01:45 57.85292 -152.37743 923 ft 151 kts 358°
2026-05-06 01:45 57.86351 -152.37692 915 ft 154 kts 359°
2026-05-06 01:45 57.87309 -152.36832 796 ft 158 kts 39°
2026-05-06 01:45 57.88107 -152.35432 816 ft 157 kts 39°
2026-05-06 01:46 57.88894 -152.34039 815 ft 157 kts 39°
2026-05-06 01:46 57.89697 -152.32651 819 ft 156 kts 33°
2026-05-06 01:46 57.90700 -152.32117 846 ft 152 kts 360°
2026-05-06 01:46 57.91779 -152.32127 819 ft 155 kts 356°
2026-05-06 01:47 57.92848 -152.32178 815 ft 155 kts 356°
2026-05-06 01:47 57.93925 -152.32222 814 ft 154 kts 356°
2026-05-06 01:47 57.95002 -152.32262 813 ft 154 kts 356°
2026-05-06 01:47 57.96068 -152.32300 812 ft 154 kts 356°
2026-05-06 01:48 57.97142 -152.32336 811 ft 153 kts 356°
2026-05-06 01:48 57.98200 -152.32364 812 ft 152 kts 356°
2026-05-06 01:48 57.99262 -152.32388 817 ft 153 kts 356°
2026-05-06 01:48 58.00335 -152.32413 811 ft 154 kts 356°
2026-05-06 01:49 58.01411 -152.32431 811 ft 155 kts 356°
2026-05-06 01:49 58.02487 -152.32451 810 ft 155 kts 356°
2026-05-06 01:49 58.03571 -152.32472 809 ft 156 kts 356°
2026-05-06 01:49 58.04660 -152.32497 805 ft 156 kts 356°
2026-05-06 01:50 58.05740 -152.32521 805 ft 156 kts 356°
2026-05-06 01:50 58.06833 -152.32544 805 ft 156 kts 356°
2026-05-06 01:50 58.07908 -152.32571 802 ft 155 kts 356°
2026-05-06 01:50 58.08996 -152.32597 801 ft 155 kts 356°
2026-05-06 01:51 58.10066 -152.32623 803 ft 154 kts 356°
2026-05-06 01:51 58.11146 -152.32646 805 ft 155 kts 356°
2026-05-06 01:51 58.12192 -152.33067 811 ft 154 kts 341°
2026-05-06 01:51 58.13217 -152.33629 810 ft 155 kts 341°
2026-05-06 01:52 58.14251 -152.34193 806 ft 155 kts 341°
2026-05-06 01:52 58.15297 -152.34782 811 ft 155 kts 338°
2026-05-06 01:52 58.16305 -152.35460 808 ft 155 kts 337°
2026-05-06 01:52 58.17313 -152.36159 808 ft 155 kts 336°
2026-05-06 01:53 58.18332 -152.36879 805 ft 156 kts 336°
2026-05-06 01:53 58.19351 -152.37604 801 ft 156 kts 336°
2026-05-06 01:53 58.20337 -152.38307 888 ft 151 kts 336°
2026-05-06 01:53 58.21327 -152.39012 900 ft 152 kts 337°
2026-05-06 01:54 58.22306 -152.39711 1025 ft 143 kts 336°
2026-05-06 01:54 58.23023 -152.40214 1826 ft 95 kts 339°
2026-05-06 01:54 58.23776 -152.40741 1384 ft 155 kts 335°
2026-05-06 01:54 58.24809 -152.41496 1217 ft 155 kts 336°
2026-05-06 01:55 58.25817 -152.42229 1212 ft 156 kts 336°
2026-05-06 01:55 58.26833 -152.42963 1204 ft 156 kts 336°
2026-05-06 01:55 58.27844 -152.43689 1190 ft 156 kts 336°
2026-05-06 01:55 58.28867 -152.44426 1191 ft 155 kts 336°
2026-05-06 01:56 58.29866 -152.45143 1208 ft 155 kts 337°
2026-05-06 01:56 58.30937 -152.45914 778 ft 173 kts 336°
2026-05-06 01:56 58.32039 -152.46716 724 ft 166 kts 336°
2026-05-06 01:56 58.33094 -152.47479 710 ft 162 kts 336°
2026-05-06 01:57 58.34206 -152.47737 672 ft 158 kts
2026-05-06 01:57 58.35324 -152.47606 526 ft 164 kts
2026-05-06 01:57 58.36460 -152.47464 510 ft 161 kts
2026-05-06 01:57 58.37571 -152.47330 505 ft 159 kts
2026-05-06 01:58 58.38672 -152.47195 504 ft 158 kts
2026-05-06 01:58 58.39774 -152.47058 504 ft 158 kts
2026-05-06 01:58 58.40861 -152.46924 504 ft 157 kts
2026-05-06 01:58 58.41959 -152.46783 505 ft 158 kts
2026-05-06 01:59 58.43055 -152.46648 494 ft 158 kts
2026-05-06 01:59 58.44159 -152.46506 499 ft 158 kts 359°
2026-05-06 01:59 58.45234 -152.46739 412 ft 162 kts 332°
2026-05-06 01:59 58.46041 -152.48161 342 ft 161 kts 305°
2026-05-06 02:00 58.46721 -152.49854 308 ft 160 kts 305°
2026-05-06 02:00 58.47109 -152.51802 318 ft 158 kts 281°
2026-05-06 02:00 58.47353 -152.53848 300 ft 159 kts 281°
2026-05-06 02:00 58.47597 -152.55910 296 ft 159 kts 281°
2026-05-06 02:01 58.47839 -152.57944 292 ft 158 kts 281°
2026-05-06 02:01 58.48208 -152.59824 270 ft 137 kts 306°
2026-05-06 02:01 58.48655 -152.61055 293 ft 88 kts 311°
2026-05-06 02:01 58.49006 -152.61479 246 ft 47 kts 52°
2026-05-06 02:02 58.48963 -152.61038 96 ft 41 kts 122°
2026-05-06 02:02 58.48822 -152.60591 214 ft 42 kts 110°
2026-05-06 02:02 58.48658 -152.60004 208 ft 58 kts 112°
2026-05-06 02:02 58.48451 -152.59183 231 ft 76 kts 104°
2026-05-06 02:03 58.48341 -152.58118 225 ft 84 kts 86°
2026-05-06 02:03 58.48309 -152.57156 144 ft 56 kts 58°
2026-05-06 02:03 58.48312 -152.56689 38 ft 14 kts 349°
2026-05-06 02:03 58.48356 -152.56661 49 ft 13 kts 341°
2026-05-06 02:04 58.48443 -152.56697 30 ft 12 kts 337°
2026-05-06 02:04 58.48505 -152.56729 11 ft 7 kts 335°
2026-05-06 02:04 58.48531 -152.56746 -5 ft 0 kts 335°
2026-05-06 02:10 58.48551 -152.56734 100 ft 15 kts 340°
2026-05-06 02:11 58.48703 -152.56876 406 ft 33 kts 340°
2026-05-06 02:11 58.48808 -152.56677 797 ft 16 kts 88°
2026-05-06 02:11 58.48723 -152.56529 852 ft 18 kts 194°
2026-05-06 02:11 58.48562 -152.56461 986 ft 37 kts 228°
2026-05-06 02:12 58.48246 -152.56743 1240 ft 66 kts 219°
2026-05-06 02:12 58.47982 -152.57747 1211 ft 116 kts 264°
2026-05-06 02:12 58.48338 -152.59184 1240 ft 131 kts 317°
2026-05-06 02:12 58.49247 -152.59561 1224 ft 143 kts